createdAt,value
2022-09-02T00:00:20.591Z,22.25
2022-09-02T00:02:48.892Z,22.24
2022-09-02T00:05:15.304Z,22.22
2022-09-02T00:07:41.689Z,22.24
2022-09-02T00:10:08.154Z,22.24
2022-09-02T00:12:34.525Z,22.23
2022-09-02T00:15:01.234Z,22.23
2022-09-02T00:17:28.078Z,22.21
2022-09-02T00:19:56.199Z,22.21
2022-09-02T00:22:23.849Z,22.19
2022-09-02T00:24:50.522Z,22.22
2022-09-02T00:27:17.315Z,22.21
2022-09-02T00:29:44.270Z,22.22
2022-09-02T00:32:10.709Z,22.22
2022-09-02T00:34:37.105Z,22.19
2022-09-02T00:37:03.475Z,22.20
2022-09-02T00:39:29.863Z,22.20
2022-09-02T00:41:56.854Z,22.20
2022-09-02T00:44:23.218Z,22.18
2022-09-02T00:46:49.588Z,22.19
2022-09-02T00:49:24.213Z,22.18
2022-09-02T00:52:09.885Z,22.17
2022-09-02T00:54:37.638Z,22.18
2022-09-02T00:57:04.146Z,22.18
2022-09-02T00:59:35.666Z,22.16
2022-09-02T01:02:02.266Z,22.15
2022-09-02T01:04:29.261Z,22.14
2022-09-02T01:06:56.054Z,22.11
2022-09-02T01:09:23.231Z,22.14
2022-09-02T01:11:52.182Z,22.13
2022-09-02T01:14:18.539Z,22.14
2022-09-02T01:16:46.186Z,22.14
2022-09-02T01:19:23.851Z,22.14
2022-09-02T01:21:51.242Z,22.08
2022-09-02T01:24:17.614Z,22.05
2022-09-02T01:26:44.040Z,22.05
2022-09-02T01:29:10.409Z,22.03
2022-09-02T01:31:36.871Z,22.05
2022-09-02T01:34:03.720Z,22.05
2022-09-02T01:36:30.196Z,22.05
2022-09-02T01:38:57.067Z,22.06
2022-09-02T01:41:23.686Z,22.06
2022-09-02T01:43:50.073Z,22.06
2022-09-02T01:46:16.542Z,22.07
2022-09-02T01:48:43.193Z,22.07
2022-09-02T01:51:09.585Z,22.03
2022-09-02T01:53:36.682Z,22.01
2022-09-02T01:56:05.006Z,21.98
2022-09-02T01:58:33.516Z,22.02
2022-09-02T02:00:59.958Z,22.02
2022-09-02T02:03:26.407Z,22.02
2022-09-02T02:05:56.959Z,21.99
2022-09-02T02:08:24.241Z,22.03
2022-09-02T02:10:50.914Z,22.00
2022-09-02T02:13:17.831Z,22.04
2022-09-02T02:15:44.343Z,22.02
2022-09-02T02:18:10.921Z,22.02
2022-09-02T02:20:37.292Z,22.01
2022-09-02T02:23:04.887Z,21.99
2022-09-02T02:25:31.416Z,22.00
2022-09-02T02:27:57.825Z,22.00
2022-09-02T02:30:24.237Z,22.02
2022-09-02T02:32:51.115Z,21.99
2022-09-02T02:35:19.269Z,21.98
2022-09-02T02:37:49.032Z,21.95
2022-09-02T02:40:15.876Z,21.96
2022-09-02T02:42:42.362Z,21.95
2022-09-02T02:45:09.440Z,21.92
2022-09-02T02:47:41.854Z,21.93
2022-09-02T02:50:11.697Z,21.93
2022-09-02T02:52:41.114Z,21.92
2022-09-02T02:55:08.173Z,21.94
2022-09-02T02:57:34.746Z,21.94
2022-09-02T03:00:07.644Z,21.93
2022-09-02T03:02:34.345Z,21.92
2022-09-02T03:05:01.591Z,21.93
2022-09-02T03:07:28.794Z,21.89
2022-09-02T03:09:55.222Z,21.93
2022-09-02T03:12:21.613Z,21.95
2022-09-02T03:14:49.122Z,21.94
2022-09-02T03:17:16.458Z,21.94
2022-09-02T03:19:43.018Z,21.95
2022-09-02T03:22:10.915Z,21.92
2022-09-02T03:24:37.551Z,21.95
2022-09-02T03:27:04.304Z,21.93
2022-09-02T03:29:30.697Z,21.88
2022-09-02T03:31:57.778Z,21.88
2022-09-02T03:34:24.647Z,21.88
2022-09-02T03:36:51.062Z,21.89
2022-09-02T03:39:17.457Z,21.88
2022-09-02T03:41:49.602Z,21.89
2022-09-02T03:44:16.463Z,21.83
2022-09-02T03:46:44.183Z,21.85
2022-09-02T03:49:11.277Z,21.81
2022-09-02T03:51:39.581Z,21.81
2022-09-02T03:54:07.731Z,21.83
2022-09-02T03:56:34.418Z,21.84
2022-09-02T03:59:01.670Z,21.87
2022-09-02T04:01:35.156Z,21.48
2022-09-02T04:04:04.003Z,21.42
2022-09-02T04:06:32.564Z,21.58
2022-09-02T04:09:00.573Z,21.75
2022-09-02T04:11:27.003Z,21.79
2022-09-02T04:13:54.006Z,21.73
2022-09-02T04:16:28.618Z,21.84
2022-09-02T04:18:58.594Z,21.83
2022-09-02T04:21:25.452Z,21.83
2022-09-02T04:23:52.543Z,21.83
2022-09-02T04:26:20.251Z,21.86
2022-09-02T04:28:50.291Z,21.87
2022-09-02T04:31:18.055Z,21.82
2022-09-02T04:33:44.754Z,21.84
2022-09-02T04:36:14.959Z,21.87
2022-09-02T04:38:42.610Z,21.88
2022-09-02T04:41:13.165Z,21.86
2022-09-02T04:43:39.807Z,21.89
2022-09-02T04:46:10.538Z,21.90
2022-09-02T04:48:38.233Z,21.89
2022-09-02T04:51:05.799Z,21.88
2022-09-02T04:53:32.938Z,21.85
2022-09-02T04:56:05.929Z,21.81
2022-09-02T04:58:32.969Z,21.79
2022-09-02T05:00:59.996Z,21.78
2022-09-02T05:03:26.990Z,21.75
2022-09-02T05:06:01.071Z,21.77
2022-09-02T05:08:28.258Z,21.79
2022-09-02T05:10:54.945Z,21.81
2022-09-02T05:13:21.329Z,21.81
2022-09-02T05:15:47.818Z,21.79
2022-09-02T05:18:15.109Z,21.81
2022-09-02T05:20:43.659Z,21.82
2022-09-02T05:23:11.435Z,21.83
2022-09-02T05:25:40.097Z,21.83
2022-09-02T05:28:08.866Z,21.81
2022-09-02T05:30:36.569Z,21.82
2022-09-02T05:33:03.509Z,21.81
2022-09-02T05:35:31.646Z,21.80
2022-09-02T05:38:01.326Z,21.81
2022-09-02T05:40:28.853Z,21.80
2022-09-02T05:42:56.069Z,21.81
2022-09-02T05:45:24.000Z,21.81
2022-09-02T05:47:50.525Z,21.81
2022-09-02T05:50:17.150Z,21.77
2022-09-02T05:52:45.108Z,21.81
2022-09-02T05:55:11.613Z,21.60
2022-09-02T05:57:39.392Z,21.08
2022-09-02T06:00:08.417Z,21.13
2022-09-02T06:02:40.965Z,21.19
2022-09-02T06:05:12.014Z,21.45
2022-09-02T06:07:41.960Z,21.59
2022-09-02T06:10:08.574Z,21.60
2022-09-02T06:12:39.351Z,21.59
2022-09-02T06:15:08.453Z,21.55
2022-09-02T06:17:37.350Z,21.55
2022-09-02T06:20:04.195Z,21.51
2022-09-02T06:22:32.678Z,21.53
2022-09-02T06:24:59.527Z,21.54
2022-09-02T06:27:26.831Z,21.17
2022-09-02T06:29:54.190Z,20.88
2022-09-02T06:32:23.416Z,20.69
2022-09-02T06:34:54.923Z,20.67
2022-09-02T06:37:22.245Z,20.60
2022-09-02T06:39:50.275Z,20.49
2022-09-02T06:42:22.125Z,20.66
2022-09-02T06:45:24.329Z,20.98
2022-09-02T06:47:51.746Z,21.18
2022-09-02T06:50:18.465Z,21.34
2022-09-02T06:53:15.434Z,21.38
2022-09-02T06:55:43.573Z,21.41
2022-09-02T06:58:10.538Z,21.44
2022-09-02T07:00:38.409Z,21.45
2022-09-02T07:03:23.326Z,21.46
2022-09-02T07:06:02.629Z,21.48
2022-09-02T07:08:29.485Z,21.49
2022-09-02T07:10:56.832Z,21.51
2022-09-02T07:13:23.378Z,21.52
2022-09-02T07:15:49.928Z,21.53
2022-09-02T07:18:16.591Z,21.54
2022-09-02T07:20:44.863Z,21.55
2022-09-02T07:23:11.318Z,21.55
2022-09-02T07:25:44.029Z,21.56
2022-09-02T07:28:11.998Z,20.70
2022-09-02T07:30:42.797Z,20.62
2022-09-02T07:33:14.388Z,20.53
2022-09-02T07:35:42.658Z,20.68
2022-09-02T07:38:10.125Z,20.88
2022-09-02T07:40:37.645Z,20.72
2022-09-02T07:43:05.254Z,20.67
2022-09-02T07:45:34.015Z,20.97
2022-09-02T07:48:01.217Z,21.07
2022-09-02T07:50:28.981Z,20.86
2022-09-02T07:52:57.577Z,21.03
2022-09-02T07:55:25.439Z,21.19
2022-09-02T07:57:52.434Z,20.99
2022-09-02T08:00:20.110Z,21.08
2022-09-02T08:02:49.301Z,21.00
2022-09-02T08:05:21.209Z,20.89
2022-09-02T08:07:47.587Z,20.93
2022-09-02T08:10:14.621Z,20.92
2022-09-02T08:12:41.077Z,21.04
2022-09-02T08:15:07.554Z,21.10
2022-09-02T08:17:34.245Z,20.93
2022-09-02T08:20:01.045Z,21.05
2022-09-02T08:22:35.486Z,21.04
2022-09-02T08:25:02.205Z,21.07
2022-09-02T08:27:28.577Z,20.77
2022-09-02T08:29:54.946Z,20.59
2022-09-02T08:32:21.315Z,20.81
2022-09-02T08:34:48.093Z,20.80
2022-09-02T08:37:14.473Z,20.95
2022-09-02T08:39:40.849Z,20.91
2022-09-02T08:42:15.596Z,20.57
2022-09-02T08:44:42.037Z,20.77
2022-09-02T08:47:10.515Z,20.88
2022-09-02T08:49:41.383Z,21.02
2022-09-02T08:52:07.771Z,21.08
2022-09-02T08:54:39.797Z,21.21
2022-09-02T08:57:06.191Z,21.17
2022-09-02T08:59:32.629Z,21.19
2022-09-02T09:02:06.897Z,21.23
2022-09-02T09:04:51.174Z,21.25
2022-09-02T09:07:17.474Z,21.27
2022-09-02T09:09:43.755Z,21.29
2022-09-02T09:12:12.332Z,21.30
2022-09-02T09:14:42.339Z,21.33
2022-09-02T09:17:10.353Z,21.36
2022-09-02T09:19:42.843Z,21.37
2022-09-02T09:22:11.008Z,21.37
2022-09-02T09:24:38.489Z,21.32
2022-09-02T09:27:06.120Z,21.36
2022-09-02T09:29:33.127Z,21.33
2022-09-02T09:32:00.040Z,21.37
2022-09-02T09:34:45.929Z,21.39
2022-09-02T09:37:13.112Z,21.39
2022-09-02T09:39:39.745Z,21.44
2022-09-02T09:42:12.248Z,21.46
2022-09-02T09:44:45.878Z,21.49
2022-09-02T09:47:22.858Z,21.49
2022-09-02T09:49:50.093Z,21.52
2022-09-02T09:52:26.093Z,21.54
2022-09-02T09:55:07.800Z,21.58
2022-09-02T09:57:35.680Z,21.60
2022-09-02T10:00:10.159Z,21.62
2022-09-02T10:02:45.247Z,21.64
2022-09-02T10:05:17.134Z,21.66
2022-09-02T10:07:45.191Z,21.67
2022-09-02T10:10:15.006Z,21.68
2022-09-02T10:12:41.363Z,21.67
2022-09-02T10:15:08.305Z,21.65
2022-09-02T10:17:40.206Z,21.67
2022-09-02T10:20:25.342Z,21.66
2022-09-02T10:23:04.771Z,21.70
2022-09-02T10:25:39.807Z,21.69
2022-09-02T10:28:24.989Z,21.68
2022-09-02T10:30:55.623Z,21.69
2022-09-02T10:33:24.998Z,21.67
2022-09-02T10:35:55.070Z,21.70
2022-09-02T10:38:30.438Z,21.70
2022-09-02T10:40:56.766Z,21.70
2022-09-02T10:43:42.522Z,21.71
2022-09-02T10:46:09.378Z,21.70
2022-09-02T10:48:53.278Z,21.73
2022-09-02T10:51:27.560Z,21.74
2022-09-02T10:53:59.586Z,21.72
2022-09-02T10:56:27.344Z,21.71
2022-09-02T10:58:54.996Z,21.70
2022-09-02T11:01:25.955Z,21.72
2022-09-02T11:04:00.751Z,21.73
2022-09-02T11:06:35.382Z,21.72
2022-09-02T11:12:00.507Z,21.74
2022-09-02T11:14:37.599Z,21.74
2022-09-02T11:17:03.938Z,21.75
2022-09-02T11:19:33.022Z,21.74
2022-09-02T11:22:18.094Z,21.74
2022-09-02T11:24:52.213Z,21.72
2022-09-02T11:27:42.131Z,21.73
2022-09-02T11:30:16.634Z,21.77
2022-09-02T11:32:51.958Z,21.78
2022-09-02T11:35:19.851Z,21.80
2022-09-02T11:37:47.517Z,21.82
2022-09-02T11:43:50.467Z,21.85
2022-09-02T11:46:36.728Z,21.89
2022-09-02T11:49:21.507Z,21.89
2022-09-02T11:52:06.362Z,21.90
2022-09-02T11:54:35.091Z,21.91
2022-09-02T11:57:02.056Z,21.90
2022-09-02T11:59:47.130Z,21.91
2022-09-02T12:02:13.877Z,21.92
2022-09-02T12:04:59.206Z,21.92
2022-09-02T12:07:29.719Z,21.91
2022-09-02T12:10:02.288Z,21.89
2022-09-02T12:12:38.294Z,21.93
2022-09-02T12:15:05.393Z,21.94
2022-09-02T12:17:44.178Z,21.94
2022-09-02T12:20:11.355Z,21.92
2022-09-02T12:22:38.941Z,21.92
2022-09-02T12:25:06.654Z,21.93
2022-09-02T12:27:39.850Z,21.93
2022-09-02T12:30:11.130Z,21.94
2022-09-02T12:32:46.278Z,21.95
2022-09-02T12:35:32.613Z,21.94
2022-09-02T12:38:11.481Z,21.94
2022-09-02T12:40:39.668Z,21.93
2022-09-02T12:43:14.193Z,21.93
2022-09-02T12:45:41.105Z,21.97
2022-09-02T12:48:17.456Z,21.99
2022-09-02T12:50:43.848Z,22.02
2022-09-02T12:53:29.868Z,22.01
2022-09-02T12:55:58.462Z,22.03
2022-09-02T12:58:24.975Z,22.01
2022-09-02T13:01:03.455Z,22.00
2022-09-02T13:03:29.765Z,22.03
2022-09-02T13:05:58.854Z,22.05
2022-09-02T13:08:36.531Z,22.06
2022-09-02T13:11:14.958Z,22.08
2022-09-02T13:13:48.859Z,22.08
2022-09-02T13:16:38.118Z,22.10
2022-09-02T13:19:23.053Z,22.12
2022-09-02T13:22:08.312Z,22.12
2022-09-02T13:24:41.588Z,22.14
2022-09-02T13:27:32.290Z,22.14
2022-09-02T13:30:05.894Z,22.11
2022-09-02T13:32:32.597Z,22.12
2022-09-02T13:35:02.647Z,22.14
2022-09-02T13:37:41.645Z,22.14
2022-09-02T13:40:18.497Z,22.15
2022-09-02T13:42:51.729Z,22.18
2022-09-02T13:45:18.985Z,22.20
2022-09-02T13:47:46.070Z,22.20
2022-09-02T13:50:13.396Z,22.22
2022-09-02T13:53:34.582Z,22.20
2022-09-02T13:55:26.601Z,22.23
2022-09-02T13:58:00.568Z,22.25
2022-09-02T14:00:47.173Z,22.23
2022-09-02T14:03:14.999Z,22.24
2022-09-02T14:05:46.882Z,22.22
2022-09-02T14:08:14.549Z,22.22
2022-09-02T14:10:42.374Z,22.20
2022-09-02T14:13:08.743Z,22.17
2022-09-02T14:15:35.235Z,22.20
2022-09-02T14:18:18.217Z,22.20
2022-09-02T14:21:03.795Z,22.24
2022-09-02T14:23:31.251Z,22.73
2022-09-02T14:25:58.025Z,22.93
2022-09-02T14:28:25.046Z,22.94
2022-09-02T14:30:58.564Z,23.05
2022-09-02T14:33:41.433Z,23.00
2022-09-02T14:36:17.864Z,22.90
2022-09-02T14:38:47.012Z,22.89
2022-09-02T14:41:18.681Z,22.93
2022-09-02T14:43:46.013Z,23.01
2022-09-02T14:46:14.874Z,22.97
2022-09-02T14:48:41.301Z,23.04
2022-09-02T14:51:07.731Z,23.04
2022-09-02T14:53:34.249Z,22.94
2022-09-02T14:56:00.611Z,23.13
2022-09-02T14:58:27.638Z,23.28
2022-09-02T15:01:00.566Z,23.13
2022-09-02T15:03:27.229Z,23.17
2022-09-02T15:05:53.844Z,23.29
2022-09-02T15:08:20.281Z,23.27
2022-09-02T15:10:46.779Z,23.31
2022-09-02T15:13:13.527Z,23.24
2022-09-02T15:15:39.994Z,23.25
2022-09-02T15:18:06.400Z,23.34
2022-09-02T15:20:35.430Z,23.30
2022-09-02T15:23:01.846Z,23.31
2022-09-02T15:25:28.514Z,23.33
2022-09-02T15:27:54.880Z,23.37
2022-09-02T15:30:21.251Z,23.37
2022-09-02T15:32:48.131Z,23.33
2022-09-02T15:35:14.494Z,23.34
2022-09-02T15:37:40.871Z,23.43
2022-09-02T15:40:07.969Z,23.48
2022-09-02T15:42:35.203Z,23.50
2022-09-02T15:45:02.638Z,23.30
2022-09-02T15:47:30.485Z,23.36
2022-09-02T15:49:57.679Z,23.35
2022-09-02T15:52:24.046Z,23.38
2022-09-02T15:54:50.422Z,23.52
2022-09-02T15:57:16.785Z,23.50
2022-09-02T15:59:43.142Z,23.39
2022-09-02T16:02:09.559Z,23.35
2022-09-02T16:04:35.946Z,23.38
2022-09-02T16:07:02.894Z,23.20
2022-09-02T16:09:29.253Z,23.28
2022-09-02T16:11:58.296Z,23.22
2022-09-02T16:14:24.640Z,23.22
2022-09-02T16:16:51.220Z,22.97
2022-09-02T16:19:21.348Z,22.86
2022-09-02T16:21:48.065Z,22.86
2022-09-02T16:24:14.503Z,22.94
2022-09-02T16:26:41.207Z,22.96
2022-09-02T16:29:08.577Z,22.95
2022-09-02T16:31:35.737Z,22.96
2022-09-02T16:34:03.123Z,22.92
2022-09-02T16:36:33.255Z,22.97
2022-09-02T16:39:00.995Z,22.93
2022-09-02T16:41:30.314Z,22.90
2022-09-02T16:43:57.391Z,22.84
2022-09-02T16:46:23.965Z,22.87
2022-09-02T16:48:50.382Z,22.91
2022-09-02T16:51:16.754Z,22.84
2022-09-02T16:53:43.799Z,22.84
2022-09-02T16:56:17.105Z,22.87
2022-09-02T16:58:43.480Z,22.88
2022-09-02T17:01:12.197Z,22.86
2022-09-02T17:03:39.058Z,22.85
2022-09-02T17:06:05.497Z,22.84
2022-09-02T17:08:31.863Z,22.83
2022-09-02T17:11:17.047Z,22.82
2022-09-02T17:13:43.411Z,22.81
2022-09-02T17:16:09.837Z,22.79
2022-09-02T17:18:36.287Z,22.77
2022-09-02T17:21:12.741Z,22.76
2022-09-02T17:23:39.735Z,22.75
2022-09-02T17:26:06.091Z,22.74
2022-09-02T17:28:32.464Z,22.73
2022-09-02T17:30:59.028Z,22.73
2022-09-02T17:33:25.442Z,22.74
2022-09-02T17:35:57.903Z,22.74
2022-09-02T17:38:27.190Z,22.68
2022-09-02T17:41:12.397Z,22.69
2022-09-02T17:43:38.779Z,22.72
2022-09-02T17:46:08.520Z,22.73
2022-09-02T17:48:45.123Z,22.74
2022-09-02T17:51:21.498Z,22.75
2022-09-02T17:53:48.565Z,22.75
2022-09-02T17:56:19.958Z,22.74
2022-09-02T17:58:55.008Z,22.73
2022-09-02T18:01:21.861Z,22.65
2022-09-02T18:03:59.090Z,22.52
2022-09-02T18:06:28.186Z,22.52
2022-09-02T18:09:02.198Z,22.48
2022-09-02T18:11:29.109Z,22.53
2022-09-02T18:14:07.521Z,22.64
2022-09-02T18:16:36.911Z,22.81
2022-09-02T18:19:21.999Z,23.09
2022-09-02T18:21:54.210Z,23.27
2022-09-02T18:24:25.351Z,23.41
2022-09-02T18:27:14.696Z,23.39
2022-09-02T18:29:50.076Z,23.13
2022-09-02T18:32:20.634Z,23.19
2022-09-02T18:35:05.679Z,23.46
2022-09-02T18:37:54.845Z,23.47
2022-09-02T18:40:25.820Z,23.44
2022-09-02T18:43:07.181Z,23.61
2022-09-02T18:45:52.741Z,23.52
2022-09-02T18:48:20.728Z,23.53
2022-09-02T18:50:51.317Z,23.51
2022-09-02T18:53:19.401Z,23.34
2022-09-02T18:55:45.806Z,23.41
2022-09-02T18:58:15.235Z,23.57
2022-09-02T19:00:44.322Z,23.54
2022-09-02T19:03:10.717Z,23.40
2022-09-02T19:05:37.084Z,23.35
2022-09-02T19:08:32.559Z,23.29
2022-09-02T19:11:06.705Z,23.38
2022-09-02T19:13:53.455Z,23.59
2022-09-02T19:16:20.591Z,23.76
2022-09-02T19:18:47.041Z,23.67
2022-09-02T19:21:16.260Z,23.35
2022-09-02T19:23:43.360Z,23.23
2022-09-02T19:26:09.713Z,23.12
2022-09-02T19:28:36.111Z,23.20
2022-09-02T19:31:02.484Z,23.13
2022-09-02T19:33:29.201Z,23.11
2022-09-02T19:35:56.995Z,23.09
2022-09-02T19:38:23.408Z,23.09
2022-09-02T19:40:49.829Z,23.09
2022-09-02T19:43:16.674Z,23.08
2022-09-02T19:45:43.106Z,23.08
2022-09-02T19:48:12.511Z,23.06
2022-09-02T19:50:40.926Z,23.04
2022-09-02T19:53:08.109Z,23.03
2022-09-02T19:55:35.806Z,22.96
2022-09-02T19:58:02.185Z,22.97
2022-09-02T20:00:28.545Z,22.96
2022-09-02T20:02:55.236Z,22.94
2022-09-02T20:05:24.340Z,22.93
2022-09-02T20:07:50.712Z,22.92
2022-09-02T20:10:20.510Z,22.91
2022-09-02T20:12:54.062Z,22.90
2022-09-02T20:15:20.525Z,22.88
2022-09-02T20:17:46.994Z,22.87
2022-09-02T20:20:17.396Z,22.87
2022-09-02T20:22:44.530Z,22.85
2022-09-02T20:25:10.907Z,22.85
2022-09-02T20:27:42.134Z,22.84
2022-09-02T20:30:12.740Z,22.83
2022-09-02T20:32:55.465Z,22.83
2022-09-02T20:35:40.834Z,22.82
2022-09-02T20:38:07.192Z,22.80
2022-09-02T20:40:45.891Z,22.80
2022-09-02T20:43:30.832Z,22.78
2022-09-02T20:45:58.119Z,22.76
2022-09-02T20:48:39.811Z,22.76
2022-09-02T20:51:09.804Z,22.77
2022-09-02T20:53:37.791Z,22.76
2022-09-02T20:56:05.167Z,22.74
2022-09-02T20:58:35.923Z,22.72
2022-09-02T21:01:04.456Z,22.72
2022-09-02T21:03:37.202Z,22.72
2022-09-02T21:06:03.579Z,22.70
2022-09-02T21:08:31.461Z,22.71
2022-09-02T21:10:59.305Z,22.70
2022-09-02T21:13:44.262Z,22.69
2022-09-02T21:16:21.348Z,22.68
2022-09-02T21:19:00.751Z,22.67
2022-09-02T21:21:27.038Z,22.66
2022-09-02T21:24:16.406Z,22.66
2022-09-02T21:26:43.402Z,22.65
2022-09-02T21:29:17.546Z,22.64
2022-09-02T21:31:48.803Z,22.64
2022-09-02T21:34:26.215Z,22.64
2022-09-02T21:36:53.325Z,22.63
2022-09-02T21:39:19.737Z,22.63
2022-09-02T21:42:05.291Z,22.62
2022-09-02T21:44:33.975Z,22.62
2022-09-02T21:47:03.820Z,22.62
2022-09-02T21:49:45.519Z,22.62
2022-09-02T21:52:30.188Z,22.61
2022-09-02T21:55:15.451Z,22.61
2022-09-02T21:57:46.778Z,22.61
2022-09-02T22:00:16.221Z,22.61
2022-09-02T22:03:04.073Z,22.60
2022-09-02T22:05:36.522Z,22.59
2022-09-02T22:08:14.226Z,22.58
2022-09-02T22:10:43.865Z,22.58
2022-09-02T22:13:10.215Z,22.58
2022-09-02T22:15:43.354Z,22.58
2022-09-02T22:18:28.569Z,22.57
2022-09-02T22:20:55.759Z,22.57
2022-09-02T22:23:23.512Z,22.56
2022-09-02T22:25:50.118Z,22.56
2022-09-02T22:28:20.333Z,22.56
2022-09-02T22:30:47.604Z,22.55
2022-09-02T22:33:14.524Z,22.49
2022-09-02T22:35:48.674Z,22.53
2022-09-02T22:38:26.325Z,22.54
2022-09-02T22:41:00.047Z,22.52
2022-09-02T22:43:41.689Z,22.53
2022-09-02T22:46:28.323Z,22.52
2022-09-02T22:49:14.836Z,22.52
2022-09-02T22:52:09.061Z,22.52
2022-09-02T22:54:35.467Z,22.52
2022-09-02T22:57:10.694Z,22.51
2022-09-02T22:59:40.127Z,22.50
2022-09-02T23:02:22.100Z,22.50
2022-09-02T23:04:54.927Z,22.50
2022-09-02T23:07:22.796Z,22.51
2022-09-02T23:09:53.022Z,22.50
2022-09-02T23:12:43.740Z,22.49
2022-09-02T23:15:14.466Z,22.48
2022-09-02T23:17:47.202Z,22.49
2022-09-02T23:20:16.879Z,22.48
2022-09-02T23:22:53.766Z,22.48
2022-09-02T23:25:23.067Z,22.48
2022-09-02T23:27:55.811Z,22.47
2022-09-02T23:30:22.211Z,22.47
2022-09-02T23:33:02.578Z,22.47
2022-09-02T23:35:33.189Z,22.46
2022-09-02T23:38:08.167Z,22.45
2022-09-02T23:40:41.547Z,22.44
2022-09-02T23:43:08.211Z,22.44
2022-09-02T23:45:34.588Z,22.46
2022-09-02T23:48:19.582Z,22.44
2022-09-02T23:51:05.458Z,22.42
2022-09-02T23:53:40.406Z,22.43
2022-09-02T23:56:17.877Z,22.42
2022-09-02T23:58:57.407Z,22.42
